Time;durP1;ratioP1;P1;durP2;ratioP2;P2;SDS_P1;SDS_P2;PMS_P1;PMS_P2;Temp;Humidity;BMP_temperature;BMP_pressure;BME280_temperature;BME280_humidity;BME280_pressure;Samples;Min_cycle;Max_cycle;Signal;HPM_P1;HPM_P2
2022/01/06 00:02:41;;;;;;;15.20;4.70;;;1.50;99.90;;;;;;4996912;28;20058;-87
2022/01/06 00:05:07;;;;;;;31.03;12.37;;;2.20;99.90;;;;;;4997902;28;20127;-88
2022/01/06 00:07:33;;;;;;;19.80;4.77;;;2.80;99.90;;;;;;5014394;28;20049;-88
2022/01/06 00:09:59;;;;;;;12.03;2.20;;;3.40;99.90;;;;;;4997254;28;20042;-87
2022/01/06 00:12:45;;;;;;;23.43;9.67;;;3.90;99.90;;;;;;5014865;28;20506;-87
2022/01/06 00:23:38;;;;;;;17.57;5.23;;;2.30;99.90;;;;;;4996887;28;20494;-87
2022/01/06 00:26:06;;;;;;;34.70;13.33;;;3.60;99.90;;;;;;4996604;28;20089;-87
2022/01/06 00:28:37;;;;;;;21.10;5.03;;;2.60;99.90;;;;;;4995941;28;20049;-87
2022/01/06 00:31:04;;;;;;;27.77;8.77;;;2.30;99.90;;;;;;4996871;28;20061;-87
2022/01/06 00:33:55;;;;;;;56.67;23.60;;;3.60;99.90;;;;;;5014465;28;20069;-87
2022/01/06 00:36:27;;;;;;;40.73;15.10;;;2.70;99.90;;;;;;4995730;28;20133;-87
2022/01/06 00:39:00;;;;;;;15.77;3.20;;;2.30;99.90;;;;;;4980055;28;20058;-87
2022/01/06 00:41:55;;;;;;;37.53;14.55;;;2.10;99.90;;;;;;5053803;23;20149;-87
2022/01/06 00:44:32;;;;;;;23.47;5.93;;;3.50;99.90;;;;;;4956149;28;20407;-87
2022/01/06 00:47:04;;;;;;;26.67;8.20;;;1.50;99.90;;;;;;4957272;28;20101;-87
2022/01/06 00:49:36;;;;;;;17.23;5.07;;;2.20;99.90;;;;;;4956807;28;20039;-87
2022/01/06 00:52:08;;;;;;;12.17;2.47;;;2.70;99.90;;;;;;4957618;28;20104;-87
2022/01/06 00:54:34;;;;;;;9.10;1.90;;;1.90;99.90;;;;;;4958076;28;20039;-87
2022/01/06 00:56:59;;;;;;;18.70;4.07;;;2.00;99.90;;;;;;4956745;28;20058;-88
2022/01/06 00:59:34;;;;;;;11.20;2.03;;;3.10;99.90;;;;;;4957760;28;20038;-87
2022/01/06 01:02:02;;;;;;;9.70;2.03;;;1.90;99.90;;;;;;4957115;28;20043;-87
2022/01/06 01:04:31;;;;;;;15.37;2.60;;;1.40;99.90;;;;;;4956892;28;20042;-87
2022/01/06 01:07:03;;;;;;;14.53;2.30;;;1.90;99.90;;;;;;4956873;28;20042;-87
2022/01/06 01:09:38;;;;;;;15.50;2.43;;;2.30;99.90;;;;;;4957397;28;20494;-87
2022/01/06 01:12:07;;;;;;;14.30;2.40;;;2.40;99.90;;;;;;4956392;28;20138;-88
2022/01/06 01:17:38;;;;;;;15.30;2.30;;;2.30;99.90;;;;;;4950271;28;20162;-87
2022/01/06 01:20:13;;;;;;;17.60;3.17;;;2.60;99.90;;;;;;4978199;28;20038;-87
2022/01/06 01:22:45;;;;;;;13.43;1.97;;;3.00;99.90;;;;;;4957693;28;20057;-87
2022/01/06 01:25:14;;;;;;;15.90;2.57;;;4.10;99.90;;;;;;4956422;28;20091;-88
2022/01/06 01:27:44;;;;;;;15.63;2.73;;;2.20;99.90;;;;;;4957440;28;20502;-88
2022/01/06 01:30:15;;;;;;;15.30;2.40;;;2.10;99.90;;;;;;4956732;28;20054;-88
2022/01/06 01:32:51;;;;;;;14.63;2.73;;;2.50;99.90;;;;;;4954922;28;20051;-87
2022/01/06 01:35:20;;;;;;;15.93;2.50;;;2.10;99.90;;;;;;4962767;23;20055;-88
2022/01/06 01:37:49;;;;;;;17.60;2.60;;;2.00;99.90;;;;;;4981784;23;20058;-88
2022/01/06 01:40:17;;;;;;;17.63;3.43;;;1.40;99.90;;;;;;4967879;28;20053;-88
2022/01/06 01:42:52;;;;;;;17.03;2.47;;;2.00;99.90;;;;;;4975948;28;20049;-88
2022/01/06 01:45:27;;;;;;;19.10;2.67;;;1.90;99.90;;;;;;4975394;28;20050;-87
2022/01/06 01:47:53;;;;;;;12.97;2.47;;;3.10;99.90;;;;;;5008207;23;20030;-88
2022/01/06 01:50:22;;;;;;;20.57;2.93;;;1.70;99.90;;;;;;4990262;23;20057;-88
2022/01/06 01:52:58;;;;;;;21.20;2.63;;;2.80;99.90;;;;;;4974419;28;20043;-88
2022/01/06 01:55:35;;;;;;;15.03;2.83;;;0.90;99.90;;;;;;4997719;23;20157;-88
2022/01/06 01:58:01;;;;;;;13.63;3.60;;;1.80;99.90;;;;;;4976360;28;20050;-88
2022/01/06 02:00:29;;;;;;;17.30;3.23;;;1.70;99.90;;;;;;4993049;28;20638;-88
2022/01/06 02:02:55;;;;;;;15.17;2.90;;;2.90;99.90;;;;;;4976063;28;20038;-88
2022/01/06 02:05:28;;;;;;;19.97;2.87;;;1.70;99.90;;;;;;4976482;28;20050;-88
2022/01/06 02:07:58;;;;;;;14.77;2.63;;;2.80;99.90;;;;;;4975148;28;20046;-88
2022/01/06 02:10:25;;;;;;;17.97;2.80;;;1.80;99.90;;;;;;4975598;28;20050;-88
2022/01/06 02:12:56;;;;;;;16.50;2.60;;;1.80;99.90;;;;;;4975942;28;20052;-88
2022/01/06 02:15:33;;;;;;;16.03;2.50;;;2.30;99.90;;;;;;4975521;28;20093;-88
2022/01/06 02:18:05;;;;;;;15.53;3.07;;;1.80;99.90;;;;;;4975355;28;20045;-88
2022/01/06 02:20:31;;;;;;;14.33;2.33;;;1.70;99.90;;;;;;4975169;28;20452;-88
2022/01/06 02:23:03;;;;;;;15.03;2.87;;;2.40;99.90;;;;;;4975764;28;20125;-88
2022/01/06 02:25:33;;;;;;;20.20;3.00;;;1.60;99.90;;;;;;4975970;28;20042;-88
2022/01/06 02:28:05;;;;;;;17.97;2.77;;;1.50;99.90;;;;;;4974700;28;20046;-88
2022/01/06 02:34:12;;;;;;;16.43;2.53;;;1.30;99.90;;;;;;4975065;28;20506;-88
2022/01/06 02:36:41;;;;;;;22.03;3.27;;;1.30;99.90;;;;;;4974737;28;20057;-88
2022/01/06 02:39:10;;;;;;;16.53;2.50;;;1.90;99.90;;;;;;4975495;28;20578;-87
2022/01/06 02:41:42;;;;;;;16.07;2.90;;;1.50;99.90;;;;;;4974096;28;20117;-88
2022/01/06 02:44:16;;;;;;;18.53;3.70;;;2.90;99.90;;;;;;4975698;28;20045;-88
2022/01/06 02:46:44;;;;;;;18.30;2.80;;;1.20;99.90;;;;;;4975159;28;20509;-88
2022/01/06 02:49:15;;;;;;;15.20;2.80;;;3.50;99.90;;;;;;4974398;28;20364;-88
2022/01/06 02:51:44;;;;;;;16.77;2.87;;;1.10;99.90;;;;;;4998656;28;20065;-87
2022/01/06 02:54:11;;;;;;;28.47;5.13;;;1.30;99.90;;;;;;5032245;23;20050;-88
2022/01/06 02:56:42;;;;;;;17.20;2.80;;;1.00;99.90;;;;;;4974650;28;20062;-88
2022/01/06 02:59:15;;;;;;;19.17;2.80;;;1.40;99.90;;;;;;4975300;28;20104;-88
2022/01/06 03:01:45;;;;;;;12.57;2.85;;;1.10;99.90;;;;;;4974122;28;20042;-88
2022/01/06 03:04:13;;;;;;;17.60;3.00;;;1.10;99.90;;;;;;4976770;28;20047;-88
2022/01/06 03:06:45;;;;;;;21.67;4.30;;;0.50;99.90;;;;;;4978555;28;20050;-88
2022/01/06 03:09:13;;;;;;;17.23;2.80;;;1.50;99.90;;;;;;4978853;28;20096;-88
2022/01/06 03:11:45;;;;;;;17.73;2.63;;;1.70;99.90;;;;;;4978084;28;20053;-88
2022/01/06 03:14:17;;;;;;;16.70;2.73;;;2.00;99.90;;;;;;4978888;28;20436;-88
2022/01/06 03:16:46;;;;;;;20.57;2.73;;;1.00;99.90;;;;;;4978198;28;20130;-87
2022/01/06 03:19:21;;;;;;;18.90;3.93;;;1.90;99.90;;;;;;4978980;28;20394;-88
2022/01/06 03:21:52;;;;;;;19.30;3.40;;;2.10;99.90;;;;;;4978482;28;20050;-88
2022/01/06 03:24:24;;;;;;;18.43;2.77;;;2.00;99.90;;;;;;4978721;28;20081;-88
2022/01/06 03:27:30;;;;;;;15.40;3.57;;;2.20;99.90;;;;;;4979152;28;20394;-88
2022/01/06 03:33:20;;;;;;;14.63;2.97;;;1.10;99.90;;;;;;4995911;28;20066;-88
2022/01/06 03:35:51;;;;;;;14.23;2.60;;;1.90;99.90;;;;;;4978568;28;20095;-88
2022/01/06 03:38:23;;;;;;;16.03;2.50;;;1.50;99.90;;;;;;4977630;28;20136;-88
2022/01/06 03:40:52;;;;;;;18.30;2.73;;;0.20;99.90;;;;;;4994709;28;20030;-89
2022/01/06 03:43:23;;;;;;;17.67;2.70;;;0.80;99.90;;;;;;4986326;28;20050;-88
2022/01/06 03:45:55;;;;;;;13.77;2.67;;;2.00;99.90;;;;;;4977466;28;20046;-88
2022/01/06 03:48:24;;;;;;;19.00;3.20;;;0.60;99.90;;;;;;4978445;28;20053;-88
2022/01/06 03:50:56;;;;;;;15.67;2.50;;;0.90;99.90;;;;;;4978007;28;20086;-88
2022/01/06 03:53:26;;;;;;;21.53;3.13;;;0.60;99.90;;;;;;4977530;28;20042;-88
2022/01/06 03:55:55;;;;;;;24.77;3.30;;;1.30;99.90;;;;;;4978152;28;20384;-88
2022/01/06 03:58:24;;;;;;;16.40;3.00;;;0.50;99.90;;;;;;4997480;28;20049;-88
2022/01/06 04:00:59;;;;;;;17.50;4.00;;;0.50;99.90;;;;;;5014064;28;20085;-88
2022/01/06 04:03:30;;;;;;;15.07;2.53;;;0.20;99.90;;;;;;4997323;28;20046;-88
2022/01/06 04:05:58;;;;;;;20.13;3.73;;;0.30;99.90;;;;;;4997410;28;20084;-88
2022/01/06 04:08:37;;;;;;;18.70;2.70;;;0.60;99.90;;;;;;4997787;28;20096;-87
2022/01/06 04:11:06;;;;;;;16.13;2.80;;;0.20;99.90;;;;;;4996727;28;20077;-88
2022/01/06 04:13:37;;;;;;;15.87;2.50;;;-0.50;99.90;;;;;;4996783;28;20041;-88
2022/01/06 04:16:13;;;;;;;18.50;2.60;;;0.10;99.90;;;;;;4996609;28;20060;-88
2022/01/06 04:18:39;;;;;;;18.57;2.93;;;0.20;99.90;;;;;;4997384;28;20045;-88
2022/01/06 04:21:07;;;;;;;18.43;3.33;;;-0.10;99.90;;;;;;5013824;28;20145;-88
2022/01/06 04:23:39;;;;;;;19.07;3.20;;;0.00;99.90;;;;;;5017544;28;20038;-88
2022/01/06 04:26:08;;;;;;;17.30;2.93;;;-0.40;99.90;;;;;;5000875;28;20133;-88
2022/01/06 04:28:37;;;;;;;15.87;2.43;;;-0.70;99.90;;;;;;4995995;28;20457;-88
2022/01/06 04:31:10;;;;;;;13.40;2.33;;;-1.00;99.90;;;;;;5014361;28;20509;-88
2022/01/06 04:33:41;;;;;;;27.37;3.80;;;0.20;99.90;;;;;;4997311;28;20124;-88
2022/01/06 04:36:12;;;;;;;16.10;2.37;;;0.30;99.90;;;;;;4996341;28;20459;-87
2022/01/06 04:38:41;;;;;;;22.27;3.67;;;0.10;99.90;;;;;;4997084;28;20041;-88
2022/01/06 04:41:09;;;;;;;13.13;2.17;;;0.00;99.90;;;;;;4996691;28;20093;-87
2022/01/06 04:43:41;;;;;;;17.20;3.60;;;-0.60;99.90;;;;;;4996681;28;20042;-88
2022/01/06 04:46:13;;;;;;;15.33;2.90;;;-0.90;99.90;;;;;;4996990;28;20406;-88
2022/01/06 04:48:44;;;;;;;13.30;2.83;;;-1.00;99.90;;;;;;4995704;28;20048;-87
2022/01/06 04:51:15;;;;;;;22.47;3.87;;;-0.70;99.90;;;;;;4996521;28;20118;-87
2022/01/06 04:53:47;;;;;;;14.40;2.47;;;-1.20;99.90;;;;;;4996330;28;20046;-87
2022/01/06 04:56:18;;;;;;;19.10;2.87;;;-1.10;99.90;;;;;;4995696;28;20054;-88
2022/01/06 04:58:48;;;;;;;13.93;2.70;;;0.50;99.90;;;;;;4996101;28;20132;-88
2022/01/06 05:01:17;;;;;;;19.00;3.33;;;-0.40;99.90;;;;;;4989648;28;20038;-87
2022/01/06 05:04:01;;;;;;;19.30;2.67;;;0.20;99.90;;;;;;4995327;28;20050;-88
2022/01/06 05:06:33;;;;;;;;;;;1.00;99.90;;;;;;4995915;28;20037;-87
2022/01/06 05:09:02;;;;;;;14.70;3.10;;;-1.00;99.90;;;;;;4995981;28;20401;-88
2022/01/06 05:11:34;;;;;;;14.17;2.60;;;-1.40;99.90;;;;;;4995398;28;20052;-88
2022/01/06 05:14:08;;;;;;;12.93;2.60;;;-1.70;99.90;;;;;;4995650;28;20045;-87
2022/01/06 05:16:36;;;;;;;15.60;2.90;;;-0.90;99.90;;;;;;4995393;28;20128;-87
2022/01/06 05:19:08;;;;;;;17.40;3.00;;;-1.10;99.90;;;;;;4995571;28;20050;-87
2022/01/06 05:21:39;;;;;;;18.83;4.10;;;-1.20;99.90;;;;;;4996059;28;20046;-87
2022/01/06 05:24:16;;;;;;;15.07;2.93;;;-1.40;99.90;;;;;;4994971;28;20429;-87
2022/01/06 05:26:42;;;;;;;19.13;3.60;;;-1.20;99.90;;;;;;4994857;28;20046;-87
2022/01/06 05:29:12;;;;;;;15.30;2.90;;;-1.40;99.90;;;;;;5018945;28;20061;-88
2022/01/06 05:31:41;;;;;;;17.70;2.50;;;0.40;99.90;;;;;;5004916;28;20069;-87
2022/01/06 05:34:12;;;;;;;14.57;3.00;;;-1.30;99.90;;;;;;5018278;28;20085;-87
2022/01/06 05:36:45;;;;;;;16.73;2.77;;;-0.10;99.90;;;;;;5002586;28;20049;-87
2022/01/06 05:39:14;;;;;;;19.23;3.28;;;-1.50;99.90;;;;;;4996694;28;20053;-87
2022/01/06 05:41:45;;;;;;;17.37;3.40;;;-1.30;99.90;;;;;;4995676;28;20100;-87
2022/01/06 05:44:17;;;;;;;15.63;3.37;;;-1.40;99.90;;;;;;5013281;28;20041;-87
2022/01/06 05:46:47;;;;;;;23.45;2.95;;;-1.30;99.90;;;;;;4994876;28;20038;-87
2022/01/06 05:49:14;;;;;;;21.43;3.37;;;-1.50;99.90;;;;;;4995438;28;20045;-87
2022/01/06 05:51:43;;;;;;;19.73;3.10;;;-1.10;99.90;;;;;;4995284;28;20046;-87
2022/01/06 05:54:10;;;;;;;16.90;3.83;;;0.30;99.90;;;;;;5002813;28;20053;-86
2022/01/06 05:57:27;;;;;;;15.93;3.00;;;-2.00;99.90;;;;;;5009966;28;20054;-87
2022/01/06 05:59:53;;;;;;;16.00;3.07;;;-1.00;99.90;;;;;;4993713;28;20057;-87
2022/01/06 06:02:18;;;;;;;20.43;3.80;;;-1.30;99.90;;;;;;5012701;28;20042;-87
2022/01/06 06:04:47;;;;;;;24.37;8.50;;;-1.50;99.90;;;;;;4995008;28;20046;-87
2022/01/06 06:07:21;;;;;;;28.87;10.00;;;-1.10;99.90;;;;;;5012321;28;20049;-87
2022/01/06 06:09:50;;;;;;;21.27;5.87;;;-2.30;99.90;;;;;;4995076;28;20470;-86
2022/01/06 06:12:20;;;;;;;14.63;4.80;;;-1.70;99.90;;;;;;4995078;28;20540;-87
2022/01/06 06:14:52;;;;;;;21.80;5.83;;;-2.50;99.90;;;;;;4994918;28;20617;-86
2022/01/06 06:17:25;;;;;;;16.40;3.83;;;-0.90;99.90;;;;;;5013101;28;20068;-87
2022/01/06 06:19:53;;;;;;;22.67;4.40;;;-1.40;99.90;;;;;;5011707;28;20045;-86
2022/01/06 06:22:22;;;;;;;16.20;3.70;;;-0.70;99.90;;;;;;4994945;28;20077;-87
2022/01/06 06:24:54;;;;;;;19.87;4.53;;;-1.40;99.90;;;;;;4995109;28;20053;-87
2022/01/06 06:27:25;;;;;;;18.87;3.50;;;-1.20;99.90;;;;;;4994500;28;20042;-87
2022/01/06 06:29:56;;;;;;;17.97;3.43;;;-1.00;99.90;;;;;;5012495;28;20375;-87
2022/01/06 06:32:27;;;;;;;18.40;3.10;;;-0.60;99.90;;;;;;4995012;28;20074;-86
2022/01/06 06:34:55;;;;;;;17.03;3.13;;;-1.00;99.90;;;;;;4993871;28;20057;-87
2022/01/06 06:37:28;;;;;;;20.47;3.77;;;-0.80;99.90;;;;;;4995153;28;20046;-87
2022/01/06 06:39:57;;;;;;;18.97;3.20;;;-0.80;99.90;;;;;;5015611;28;20374;-87
2022/01/06 06:42:28;;;;;;;19.00;2.97;;;0.00;99.90;;;;;;4998818;28;20493;-88
2022/01/06 06:45:01;;;;;;;21.80;2.90;;;-0.90;99.90;;;;;;5016426;28;20049;-87
2022/01/06 06:47:30;;;;;;;18.13;3.30;;;-0.70;99.90;;;;;;4998978;28;20474;-87
2022/01/06 06:49:59;;;;;;;19.27;2.80;;;-0.50;99.90;;;;;;4997604;28;20485;-87
2022/01/06 06:52:26;;;;;;;17.63;2.93;;;-0.70;99.90;;;;;;4998316;28;20053;-88
2022/01/06 06:54:55;;;;;;;19.13;2.93;;;-0.60;99.90;;;;;;4997812;28;20054;-88
2022/01/06 06:57:26;;;;;;;21.97;3.03;;;-0.40;99.90;;;;;;4998637;28;20054;-88
2022/01/06 07:00:02;;;;;;;14.07;2.40;;;-0.40;99.90;;;;;;4998640;28;20038;-88
2022/01/06 07:02:28;;;;;;;22.17;3.90;;;-0.40;99.90;;;;;;4997966;28;20393;-87
2022/01/06 07:05:03;;;;;;;17.07;2.97;;;-0.50;99.90;;;;;;4997993;28;20045;-87
2022/01/06 07:07:35;;;;;;;18.80;3.20;;;-0.50;99.90;;;;;;4998311;28;20081;-87
2022/01/06 07:10:21;;;;;;;16.30;3.00;;;-0.70;99.90;;;;;;5015275;28;20085;-86
2022/01/06 07:12:56;;;;;;;18.40;2.90;;;-0.30;99.90;;;;;;4997940;28;20489;-87
2022/01/06 07:15:27;;;;;;;13.27;2.60;;;-0.80;99.90;;;;;;4998426;28;20472;-87
2022/01/06 07:17:56;;;;;;;18.67;3.03;;;-0.80;99.90;;;;;;4997355;28;20054;-87
2022/01/06 07:20:27;;;;;;;16.60;2.80;;;-0.80;99.90;;;;;;4998712;28;20445;-87
2022/01/06 07:22:56;;;;;;;10.87;2.40;;;-0.90;99.90;;;;;;4997526;28;20061;-87
2022/01/06 07:25:34;;;;;;;22.27;3.07;;;-1.00;99.90;;;;;;4998303;28;20137;-87
2022/01/06 07:28:05;;;;;;;19.37;2.93;;;-1.00;99.90;;;;;;5012902;28;20069;-87
2022/01/06 07:30:34;;;;;;;17.80;2.97;;;-0.50;99.90;;;;;;5000887;28;20104;-86
2022/01/06 07:33:03;;;;;;;15.23;2.50;;;-1.10;99.90;;;;;;4997286;28;20054;-87
2022/01/06 07:35:35;;;;;;;17.60;2.77;;;0.20;99.90;;;;;;4997860;28;20077;-87
2022/01/06 07:38:04;;;;;;;15.53;2.50;;;-1.10;99.90;;;;;;4997327;28;20053;-87
2022/01/06 07:40:42;;;;;;;21.37;3.00;;;-1.50;99.90;;;;;;5013980;28;20057;-87
2022/01/06 07:43:17;;;;;;;14.77;3.50;;;-1.50;99.90;;;;;;4998010;28;20034;-87
2022/01/06 07:49:18;;;;;;;16.03;3.10;;;-1.30;99.90;;;;;;5047629;23;20066;-87
2022/01/06 07:51:47;;;;;;;21.50;4.47;;;-0.80;99.90;;;;;;4986364;23;20409;-87
2022/01/06 07:54:19;;;;;;;25.63;3.77;;;-1.60;99.90;;;;;;4989540;23;20137;-87
2022/01/06 07:56:51;;;;;;;14.50;3.43;;;-0.30;99.90;;;;;;4974417;28;20046;-87
2022/01/06 07:59:17;;;;;;;22.40;3.40;;;-1.40;99.90;;;;;;4995184;23;20050;-83
2022/01/06 08:01:46;;;;;;;18.97;4.03;;;-1.40;99.90;;;;;;4997080;28;20177;-86
2022/01/06 08:04:14;;;;;;;20.07;3.87;;;-1.40;99.90;;;;;;4996928;28;20046;-86
2022/01/06 08:06:47;;;;;;;20.23;4.40;;;-1.40;99.90;;;;;;4996455;28;20100;-86
2022/01/06 08:09:15;;;;;;;23.13;4.93;;;-1.00;99.90;;;;;;4997308;28;20064;-85
2022/01/06 08:11:50;;;;;;;14.53;4.00;;;-1.20;99.90;;;;;;4996892;28;20049;-85
2022/01/06 08:14:19;;;;;;;15.47;4.00;;;-1.40;99.90;;;;;;5014030;28;20120;-86
2022/01/06 08:16:47;;;;;;;20.10;4.50;;;-1.50;99.90;;;;;;4996979;28;20046;-86
2022/01/06 08:19:22;;;;;;;17.53;4.60;;;-1.30;99.90;;;;;;4996248;28;20050;-86
2022/01/06 08:21:48;;;;;;;16.40;4.53;;;-1.70;99.90;;;;;;4996991;28;20042;-86
2022/01/06 08:24:39;;;;;;;20.87;4.67;;;-1.50;99.90;;;;;;4997127;28;20103;-86
2022/01/06 08:27:08;;;;;;;18.53;4.60;;;-1.80;99.90;;;;;;4995595;28;20081;-86
2022/01/06 08:29:43;;;;;;;19.20;4.80;;;-1.30;99.90;;;;;;4997033;28;20054;-86
2022/01/06 08:32:08;;;;;;;17.37;4.67;;;-1.30;99.90;;;;;;4996847;28;20046;-84
2022/01/06 08:34:37;;;;;;;19.53;3.73;;;-1.20;99.90;;;;;;4995928;28;20072;-86
2022/01/06 08:37:03;;;;;;;20.83;3.63;;;-1.40;99.90;;;;;;4996579;28;20052;-84
2022/01/06 08:39:29;;;;;;;18.27;3.63;;;-2.10;99.90;;;;;;5002428;28;20038;-84
2022/01/06 08:42:00;;;;;;;17.03;3.60;;;-1.20;99.90;;;;;;5003170;28;20498;-84
2022/01/06 08:44:32;;;;;;;22.37;3.77;;;-1.00;99.90;;;;;;5001310;28;20062;-83
2022/01/06 08:47:01;;;;;;;20.17;3.90;;;-0.90;99.90;;;;;;4977356;28;20038;-84
2022/01/06 08:49:27;;;;;;;18.77;3.57;;;-0.70;99.90;;;;;;4996626;28;20058;-86
2022/01/06 08:52:08;;;;;;;24.27;3.57;;;-0.70;99.90;;;;;;4985629;28;20108;-85
2022/01/06 08:54:34;;;;;;;19.83;3.40;;;-0.50;99.90;;;;;;4984965;28;20050;-85
2022/01/06 08:57:03;;;;;;;17.63;3.40;;;-0.60;99.90;;;;;;5002840;28;20056;-85
2022/01/06 09:00:19;;;;;;;23.37;3.30;;;-0.50;99.90;;;;;;5000485;28;20060;-85
2022/01/06 09:02:45;;;;;;;17.83;4.10;;;-0.40;99.90;;;;;;4991737;28;20536;-86
2022/01/06 09:05:11;;;;;;;26.10;4.37;;;-0.50;99.90;;;;;;4992377;28;20034;-85
2022/01/06 09:07:42;;;;;;;17.50;3.60;;;-0.50;99.90;;;;;;4976162;28;20035;-85
2022/01/06 09:10:11;;;;;;;21.47;3.40;;;-0.60;99.90;;;;;;4975167;28;20049;-85
2022/01/06 09:12:37;;;;;;;24.43;4.07;;;-0.40;99.90;;;;;;4975939;28;20073;-86
2022/01/06 09:15:04;;;;;;;18.33;3.40;;;-0.10;99.90;;;;;;4975886;28;20045;-85
2022/01/06 09:17:48;;;;;;;18.60;3.47;;;0.00;99.90;;;;;;4956641;28;20409;-87
2022/01/06 09:20:20;;;;;;;19.30;4.57;;;0.00;99.90;;;;;;4974134;28;20057;-86
2022/01/06 09:22:52;;;;;;;19.77;3.47;;;1.00;99.90;;;;;;4976313;28;20148;-85
2022/01/06 09:26:01;;;;;;;18.33;4.30;;;-0.10;99.90;;;;;;4976019;28;20073;-86
2022/01/06 09:28:33;;;;;;;17.67;3.37;;;-0.20;99.90;;;;;;4970094;28;20505;-86
2022/01/06 09:31:02;;;;;;;17.60;3.30;;;0.00;99.90;;;;;;4992052;28;20413;-85
2022/01/06 09:33:33;;;;;;;23.23;4.70;;;0.20;99.90;;;;;;4975941;28;20824;-85
2022/01/06 09:36:06;;;;;;;24.07;4.07;;;0.10;99.90;;;;;;4975234;28;20054;-85
2022/01/06 09:38:35;;;;;;;17.03;3.73;;;0.30;99.90;;;;;;4975197;28;20394;-85
2022/01/06 09:41:06;;;;;;;17.17;3.73;;;0.20;99.90;;;;;;4975463;28;20375;-85
2022/01/06 09:43:39;;;;;;;17.30;4.30;;;0.50;99.90;;;;;;4992991;28;20070;-88
2022/01/06 09:46:10;;;;;;;22.15;4.90;;;0.40;99.90;;;;;;4993564;28;20034;-88
2022/01/06 09:48:38;;;;;;;19.83;4.20;;;0.30;99.90;;;;;;4976156;28;20046;-85
2022/01/06 09:51:14;;;;;;;21.63;4.60;;;2.50;99.90;;;;;;4992244;28;20049;-87
2022/01/06 09:53:39;;;;;;;24.50;6.93;;;1.00;99.90;;;;;;4990917;28;20056;-85
2022/01/06 09:56:12;;;;;;;20.17;4.20;;;0.90;99.90;;;;;;4991359;28;20038;-85
2022/01/06 09:58:38;;;;;;;23.02;4.45;;;0.80;99.90;;;;;;5000556;28;20126;-86
2022/01/06 10:01:11;;;;;;;17.07;3.97;;;1.60;99.90;;;;;;5032460;28;20481;-85
2022/01/06 10:03:44;;;;;;;24.53;4.53;;;2.20;99.90;;;;;;5014755;28;20040;-85
2022/01/06 10:06:19;;;;;;;16.13;3.92;;;0.90;99.90;;;;;;5014373;28;20048;-88
2022/01/06 10:09:12;;;;;;;19.80;4.90;;;1.10;99.90;;;;;;4997376;28;20124;-87
2022/01/06 10:11:46;;;;;;;19.30;4.27;;;1.20;99.90;;;;;;5012503;28;20519;-85
2022/01/06 10:14:19;;;;;;;17.97;3.60;;;1.10;99.90;;;;;;5012391;28;20121;-85
2022/01/06 10:16:49;;;;;;;23.35;4.50;;;1.20;99.90;;;;;;4991062;28;20048;-85
2022/01/06 10:19:22;;;;;;;16.30;4.00;;;1.40;99.90;;;;;;4983689;28;20104;-85
2022/01/06 10:21:56;;;;;;;19.10;5.00;;;2.00;99.90;;;;;;4983418;28;20043;-85
2022/01/06 10:24:24;;;;;;;19.40;5.50;;;1.50;99.90;;;;;;4984003;28;20378;-86
2022/01/06 10:27:07;;;;;;;21.13;4.10;;;1.70;99.90;;;;;;4997326;28;20050;-86
2022/01/06 10:29:50;;;;;;;32.53;9.45;;;1.70;99.90;;;;;;4976942;28;20469;-84
2022/01/06 10:32:25;;;;;;;17.53;3.90;;;2.30;99.90;;;;;;4981350;28;20517;-84
2022/01/06 10:35:02;;;;;;;23.47;6.50;;;2.30;99.90;;;;;;4992198;28;20038;-85
2022/01/06 10:37:31;;;;;;;19.83;4.63;;;2.00;99.90;;;;;;4993018;28;20057;-85
2022/01/06 10:39:59;;;;;;;22.60;8.40;;;3.60;99.90;;;;;;4974488;28;20494;-84
2022/01/06 10:42:33;;;;;;;18.93;5.37;;;2.20;99.90;;;;;;4992765;28;20101;-85
2022/01/06 10:45:15;;;;;;;17.30;5.80;;;2.20;99.90;;;;;;4992558;28;20046;-85
2022/01/06 10:47:44;;;;;;;22.43;5.53;;;2.40;99.90;;;;;;4991589;28;20078;-84
2022/01/06 10:50:18;;;;;;;19.47;6.10;;;2.50;99.90;;;;;;4975205;28;20441;-86
2022/01/06 10:52:47;;;;;;;19.07;4.53;;;2.60;99.90;;;;;;4992679;28;20386;-85
2022/01/06 10:55:15;;;;;;;24.40;5.40;;;3.60;99.90;;;;;;4974687;28;20414;-86
2022/01/06 10:58:00;;;;;;;21.10;6.13;;;2.90;99.90;;;;;;4992630;28;20121;-86
2022/01/06 11:00:53;;;;;;;34.13;13.50;;;3.00;99.90;;;;;;4973307;28;20130;-86
2022/01/06 11:03:43;;;;;;;21.33;5.60;;;3.20;99.90;;;;;;4992459;28;20051;-86
2022/01/06 11:06:22;;;;;;;42.93;11.70;;;3.30;99.90;;;;;;4975640;28;20061;-86
2022/01/06 11:08:52;;;;;;;25.73;6.77;;;3.30;99.90;;;;;;4992033;28;20046;-86
2022/01/06 11:11:45;;;;;;;23.33;4.60;;;3.40;99.90;;;;;;4992632;28;20054;-86
2022/01/06 11:14:23;;;;;;;37.90;10.20;;;3.80;99.90;;;;;;4974895;28;20481;-87
2022/01/06 11:16:52;;;;;;;21.67;4.57;;;3.90;99.90;;;;;;4975086;28;20456;-86
2022/01/06 11:19:26;;;;;;;20.27;4.70;;;3.70;99.90;;;;;;4975835;28;20038;-86
2022/01/06 11:22:00;;;;;;;29.73;7.90;;;2.90;99.90;;;;;;4975185;28;20456;-87
2022/01/06 11:24:27;;;;;;;23.55;5.65;;;3.90;99.90;;;;;;4974944;28;20046;-86
2022/01/06 11:27:05;;;;;;;20.13;4.10;;;4.00;99.90;;;;;;4995346;28;20085;-86
2022/01/06 11:29:41;;;;;;;24.17;4.27;;;4.30;99.90;;;;;;4977860;28;20057;-86
2022/01/06 11:32:22;;;;;;;17.83;3.97;;;4.30;99.90;;;;;;4978952;28;20100;-87
2022/01/06 11:35:11;;;;;;;18.03;3.33;;;4.50;99.90;;;;;;4978643;28;20034;-87
2022/01/06 11:38:04;;;;;;;19.00;3.43;;;4.50;99.90;;;;;;4977759;28;20054;-87
2022/01/06 11:40:35;;;;;;;16.50;3.33;;;4.50;99.90;;;;;;4973950;28;20062;-87
2022/01/06 11:43:03;;;;;;;20.10;3.33;;;4.70;99.90;;;;;;5014825;28;20133;-87
2022/01/06 11:45:40;;;;;;;15.30;3.00;;;4.40;99.90;;;;;;4997189;28;20121;-87
2022/01/06 11:48:16;;;;;;;20.33;4.77;;;4.30;99.90;;;;;;4995803;28;20448;-87
2022/01/06 11:50:44;;;;;;;15.33;3.93;;;4.40;99.90;;;;;;4985307;28;20465;-87
2022/01/06 11:53:10;;;;;;;18.43;3.20;;;4.70;99.90;;;;;;4994627;28;20500;-87
2022/01/06 11:55:40;;;;;;;14.37;3.43;;;4.80;99.90;;;;;;5014932;28;20045;-87
2022/01/06 11:58:17;;;;;;;18.17;3.57;;;4.80;99.90;;;;;;4995360;28;20472;-86
2022/01/06 12:01:02;;;;;;;17.60;4.30;;;4.70;99.90;;;;;;4996856;28;20053;-87
2022/01/06 12:03:46;;;;;;;18.97;3.33;;;4.80;99.90;;;;;;5027309;28;20110;-87
2022/01/06 12:06:28;;;;;;;24.07;4.00;;;4.80;99.90;;;;;;5014933;28;20053;-86
2022/01/06 12:08:54;;;;;;;18.57;5.13;;;4.80;99.90;;;;;;4996829;28;20493;-86
2022/01/06 12:11:24;;;;;;;16.20;4.07;;;4.80;99.90;;;;;;4992474;28;20092;-86
2022/01/06 12:13:54;;;;;;;14.70;3.50;;;4.80;99.90;;;;;;5002995;28;20379;-87
2022/01/06 12:16:32;;;;;;;16.50;4.77;;;4.80;99.90;;;;;;4985670;28;20113;-88
2022/01/06 12:19:00;;;;;;;18.00;3.87;;;4.90;99.90;;;;;;5001906;28;20125;-85
2022/01/06 12:21:27;;;;;;;15.00;3.33;;;4.90;99.90;;;;;;5011761;28;20447;-84
2022/01/06 12:24:04;;;;;;;15.77;5.07;;;4.70;99.90;;;;;;4990123;28;20039;-86
2022/01/06 12:26:30;;;;;;;25.33;9.40;;;4.90;99.90;;;;;;4994561;28;20437;-88
2022/01/06 12:28:56;;;;;;;30.83;13.70;;;4.90;99.90;;;;;;4994188;28;20042;-87
2022/01/06 12:31:23;;;;;;;35.07;17.43;;;4.90;99.90;;;;;;4995132;28;20077;-87
2022/01/06 12:33:58;;;;;;;21.47;6.90;;;5.00;99.90;;;;;;4977574;28;20433;-86
2022/01/06 12:36:24;;;;;;;18.70;5.37;;;6.40;99.90;;;;;;4976866;28;20569;-87
2022/01/06 12:38:56;;;;;;;15.23;4.00;;;5.90;99.90;;;;;;4977457;28;20077;-87
2022/01/06 12:41:34;;;;;;;16.60;4.17;;;5.00;99.90;;;;;;4976316;28;20050;-87
2022/01/06 12:44:00;;;;;;;21.83;5.23;;;5.10;99.90;;;;;;4976784;28;20054;-87
2022/01/06 12:46:43;;;;;;;21.77;7.00;;;5.10;99.90;;;;;;4976416;28;20060;-86
2022/01/06 12:49:10;;;;;;;20.03;4.10;;;5.20;99.90;;;;;;4977466;28;20128;-87
2022/01/06 12:51:39;;;;;;;23.43;8.10;;;5.20;99.90;;;;;;4976945;28;20050;-87
2022/01/06 12:54:10;;;;;;;20.03;4.73;;;5.40;99.90;;;;;;4976236;28;20050;-87
2022/01/06 12:56:57;;;;;;;17.73;3.63;;;6.50;99.90;;;;;;4977000;28;20108;-87
2022/01/06 12:59:32;;;;;;;20.93;4.70;;;5.40;99.90;;;;;;4976755;28;20058;-87
2022/01/06 13:01:59;;;;;;;24.13;4.63;;;5.40;99.90;;;;;;4976205;28;20401;-87
2022/01/06 13:04:31;;;;;;;23.50;6.40;;;5.40;99.90;;;;;;4994169;28;20042;-87
2022/01/06 13:06:58;;;;;;;16.97;3.87;;;5.70;99.90;;;;;;4994004;28;20545;-87
2022/01/06 13:09:30;;;;;;;25.87;7.70;;;5.60;99.90;;;;;;4976858;28;20042;-87
2022/01/06 13:11:58;;;;;;;23.73;6.47;;;5.80;99.90;;;;;;4996204;28;20034;-86
2022/01/06 13:14:54;;;;;;;16.47;4.40;;;5.70;99.90;;;;;;4976822;28;20097;-86
2022/01/06 13:17:26;;;;;;;16.47;3.83;;;5.70;99.90;;;;;;4976343;28;20054;-87
2022/01/06 13:19:59;;;;;;;19.13;4.70;;;6.20;99.90;;;;;;4993629;28;20397;-87
2022/01/06 13:25:29;;;;;;;21.60;5.47;;;5.70;99.90;;;;;;4993542;28;20453;-86
2022/01/06 13:28:05;;;;;;;20.63;5.28;;;5.70;99.90;;;;;;4975976;28;20169;-87
2022/01/06 13:30:42;;;;;;;17.23;4.53;;;5.70;99.90;;;;;;4975587;28;20054;-86
2022/01/06 13:33:09;;;;;;;20.87;4.30;;;5.80;99.90;;;;;;4982014;28;20049;-87
2022/01/06 13:36:01;;;;;;;20.77;4.30;;;5.80;99.90;;;;;;4989147;28;20060;-86